Main page
METAR-TAF:

METAR-TAF

Airports :

Orio al Serio International Airport

Bergamo, Italy

latitude: 45-40N, longitude: 009-42E, elevation: 238 m

Current weather observation

The report was made 1 hour and 9 minutes ago, at 23:20 UTC
Wind 1 kt from variable directions
Temperature 5°C
Humidity 87%
Pressure 1020 hPa
Visibility 10 km or more
Scattered clouds at a height of 5000 ft

METAR: LIME 182320Z VRB01KT 9999 SCT050 05/03 Q1020 NOSIG

Time: 01:29 (00:29 UTC)

Forecast

The report was made 1 hour and 29 minutes ago, at 23:00 UTC
Forecast valid from 19 at 00 UTC to 19 at 24 UTC
Wind 5 kt from variable directions
Visibility 10 km or more
no clouds below 1500 m and no cumulonimbus

TAF: LIME 182300Z 1900/1924 VRB05KT CAVOK

Weather observations and forecasts of more than 4000 airports (METAR and TAF reports).

The available stations are represented by yellow and red dots on the map.

Hover mouse over dot to see the name of the station.

Then click to see weather observations and forecasts.

To change the map : click on the green buttons with a black cross to zoom in, on the green button with a dash to zoom out, or on the green arrows for adjacent maps.


METAR-TAF: